CheckWX is a tool to help pilots better visualize weather data.  It is not intended as a substitute for an official pre-flight weather briefing.

21:43:04 UTC

KSUS TAF
Spirit of St Louis Airport
St Louis, Missouri, USA
KSUS 201720Z 2018/2118 26010G18KT P6SM SCT025 OVC035 FM210100 27008KT P6SM BKN035 FM210800 32009KT P6SM VCSH SCT025 OVC035 FM211100 32009KT P6SM OVC015

Mar-20@
18:00 UTC

Mar-20 @ 18:00 UTC

Mar-21@
01:00 UTC

Mar-21 @ 01:00 UTC

KSUS 201720Z 2018/2118 26010G18KT P6SM SCT025 OVC035
Wind
  • 260° at 10 KTS
  • {Gusting to 18 KTS
Cloud Levels
  • Scattered at 2,500' AGL
  • Overcast at 3,500' AGL

Mar-21@
01:00 UTC

Mar-21 @ 01:00 UTC

Mar-21@
08:00 UTC

Mar-21 @ 08:00 UTC

FM210100 27008KT P6SM BKN035

From

From Standard forecast or significant change

Wind
  • 270° at 8 KTS
Cloud Levels
  • Broken at 3,500' AGL

Mar-21@
08:00 UTC

Mar-21 @ 08:00 UTC

Mar-21@
11:00 UTC

Mar-21 @ 11:00 UTC

FM210800 32009KT P6SM VCSH SCT025 OVC035

From

From Standard forecast or significant change

Wind
  • 320° at 9 KTS
Cloud Levels
  • Scattered at 2,500' AGL
  • Overcast at 3,500' AGL

Mar-21@
11:00 UTC

Mar-21 @ 11:00 UTC

Mar-21@
18:00 UTC

Mar-21 @ 18:00 UTC

FM211100 32009KT P6SM OVC015

From

From Standard forecast or significant change

Wind
  • 320° at 9 KTS
Cloud Levels
  • Overcast at 1,500' AGL